sensor_id;sensor_type;location;lat;lon;timestamp;P1;durP1;ratioP1;P2;durP2;ratioP2
21347;SDS011;66030;53.582;9.746;2024-01-30T00:00:13;4.78;;;2.10;;
21347;SDS011;66030;53.582;9.746;2024-01-30T00:02:41;7.15;;;2.75;;
21347;SDS011;66030;53.582;9.746;2024-01-30T00:05:09;5.97;;;2.10;;
21347;SDS011;66030;53.582;9.746;2024-01-30T00:07:37;5.63;;;2.17;;
21347;SDS011;66030;53.582;9.746;2024-01-30T00:10:05;5.65;;;2.17;;
21347;SDS011;66030;53.582;9.746;2024-01-30T00:12:33;7.85;;;3.38;;
21347;SDS011;66030;53.582;9.746;2024-01-30T00:15:01;3.97;;;2.03;;
21347;SDS011;66030;53.582;9.746;2024-01-30T00:17:32;3.97;;;2.15;;
21347;SDS011;66030;53.582;9.746;2024-01-30T00:19:59;5.97;;;1.90;;
21347;SDS011;66030;53.582;9.746;2024-01-30T00:22:32;7.30;;;2.03;;
21347;SDS011;66030;53.582;9.746;2024-01-30T00:24:59;6.90;;;2.90;;
21347;SDS011;66030;53.582;9.746;2024-01-30T00:27:28;5.80;;;2.00;;
21347;SDS011;66030;53.582;9.746;2024-01-30T00:29:55;4.57;;;2.00;;
21347;SDS011;66030;53.582;9.746;2024-01-30T00:32:23;5.18;;;2.15;;
21347;SDS011;66030;53.582;9.746;2024-01-30T00:34:52;4.50;;;1.83;;
21347;SDS011;66030;53.582;9.746;2024-01-30T00:37:21;5.00;;;2.03;;
21347;SDS011;66030;53.582;9.746;2024-01-30T00:39:49;4.07;;;2.00;;
21347;SDS011;66030;53.582;9.746;2024-01-30T00:42:17;6.30;;;2.35;;
21347;SDS011;66030;53.582;9.746;2024-01-30T00:44:45;5.60;;;2.20;;
21347;SDS011;66030;53.582;9.746;2024-01-30T00:47:13;5.35;;;2.10;;
21347;SDS011;66030;53.582;9.746;2024-01-30T00:49:41;7.10;;;2.00;;
21347;SDS011;66030;53.582;9.746;2024-01-30T00:52:10;2.90;;;1.73;;
21347;SDS011;66030;53.582;9.746;2024-01-30T00:54:38;5.95;;;2.03;;
21347;SDS011;66030;53.582;9.746;2024-01-30T00:57:07;7.10;;;2.08;;
21347;SDS011;66030;53.582;9.746;2024-01-30T00:59:35;5.50;;;2.13;;
21347;SDS011;66030;53.582;9.746;2024-01-30T01:02:03;5.22;;;1.70;;
21347;SDS011;66030;53.582;9.746;2024-01-30T01:04:31;3.70;;;2.05;;
21347;SDS011;66030;53.582;9.746;2024-01-30T01:06:59;5.28;;;2.40;;
21347;SDS011;66030;53.582;9.746;2024-01-30T01:09:28;5.43;;;2.10;;
21347;SDS011;66030;53.582;9.746;2024-01-30T01:11:56;6.68;;;2.00;;
21347;SDS011;66030;53.582;9.746;2024-01-30T01:14:24;4.35;;;2.08;;
21347;SDS011;66030;53.582;9.746;2024-01-30T01:16:51;5.20;;;2.40;;
21347;SDS011;66030;53.582;9.746;2024-01-30T01:19:19;4.72;;;1.80;;
21347;SDS011;66030;53.582;9.746;2024-01-30T01:21:48;4.28;;;1.90;;
21347;SDS011;66030;53.582;9.746;2024-01-30T01:24:16;3.60;;;1.80;;
21347;SDS011;66030;53.582;9.746;2024-01-30T01:26:45;3.38;;;1.60;;
21347;SDS011;66030;53.582;9.746;2024-01-30T01:29:13;4.28;;;1.80;;
21347;SDS011;66030;53.582;9.746;2024-01-30T01:31:42;5.45;;;1.60;;
21347;SDS011;66030;53.582;9.746;2024-01-30T01:34:10;3.13;;;1.80;;
21347;SDS011;66030;53.582;9.746;2024-01-30T01:36:39;2.58;;;1.60;;
21347;SDS011;66030;53.582;9.746;2024-01-30T01:39:07;6.10;;;1.88;;
21347;SDS011;66030;53.582;9.746;2024-01-30T01:41:35;5.22;;;1.88;;
21347;SDS011;66030;53.582;9.746;2024-01-30T01:44:04;6.75;;;2.30;;
21347;SDS011;66030;53.582;9.746;2024-01-30T01:46:33;5.15;;;1.90;;
21347;SDS011;66030;53.582;9.746;2024-01-30T01:49:02;4.80;;;2.22;;
21347;SDS011;66030;53.582;9.746;2024-01-30T01:51:33;3.58;;;1.52;;
21347;SDS011;66030;53.582;9.746;2024-01-30T01:54:03;5.72;;;2.10;;
21347;SDS011;66030;53.582;9.746;2024-01-30T01:56:32;3.38;;;1.90;;
21347;SDS011;66030;53.582;9.746;2024-01-30T01:59:04;4.35;;;2.08;;
21347;SDS011;66030;53.582;9.746;2024-01-30T02:01:34;4.20;;;2.08;;
21347;SDS011;66030;53.582;9.746;2024-01-30T02:04:04;3.50;;;1.85;;
21347;SDS011;66030;53.582;9.746;2024-01-30T02:06:32;3.80;;;1.58;;
21347;SDS011;66030;53.582;9.746;2024-01-30T02:09:01;5.72;;;1.83;;
21347;SDS011;66030;53.582;9.746;2024-01-30T02:11:31;4.03;;;1.83;;
21347;SDS011;66030;53.582;9.746;2024-01-30T02:14:02;3.95;;;1.52;;
21347;SDS011;66030;53.582;9.746;2024-01-30T02:16:31;4.15;;;1.77;;
21347;SDS011;66030;53.582;9.746;2024-01-30T02:18:59;4.97;;;1.77;;
21347;SDS011;66030;53.582;9.746;2024-01-30T02:21:29;5.07;;;2.03;;
21347;SDS011;66030;53.582;9.746;2024-01-30T02:23:56;5.60;;;1.75;;
21347;SDS011;66030;53.582;9.746;2024-01-30T02:26:27;4.47;;;2.00;;
21347;SDS011;66030;53.582;9.746;2024-01-30T02:28:54;3.42;;;1.40;;
21347;SDS011;66030;53.582;9.746;2024-01-30T02:31:22;4.50;;;1.80;;
21347;SDS011;66030;53.582;9.746;2024-01-30T02:33:52;3.05;;;1.70;;
21347;SDS011;66030;53.582;9.746;2024-01-30T02:36:20;2.97;;;1.40;;
21347;SDS011;66030;53.582;9.746;2024-01-30T02:38:49;4.40;;;1.50;;
21347;SDS011;66030;53.582;9.746;2024-01-30T02:41:19;5.00;;;1.65;;
21347;SDS011;66030;53.582;9.746;2024-01-30T02:43:47;5.35;;;1.95;;
21347;SDS011;66030;53.582;9.746;2024-01-30T02:46:15;4.32;;;1.77;;
21347;SDS011;66030;53.582;9.746;2024-01-30T02:48:43;3.25;;;1.50;;
21347;SDS011;66030;53.582;9.746;2024-01-30T02:51:11;4.25;;;1.67;;
21347;SDS011;66030;53.582;9.746;2024-01-30T02:53:39;2.80;;;1.75;;
21347;SDS011;66030;53.582;9.746;2024-01-30T02:56:08;5.95;;;1.80;;
21347;SDS011;66030;53.582;9.746;2024-01-30T02:58:36;2.97;;;1.60;;
21347;SDS011;66030;53.582;9.746;2024-01-30T03:01:04;4.13;;;1.80;;
21347;SDS011;66030;53.582;9.746;2024-01-30T03:03:32;4.05;;;1.58;;
21347;SDS011;66030;53.582;9.746;2024-01-30T03:06:02;3.10;;;1.40;;
21347;SDS011;66030;53.582;9.746;2024-01-30T03:08:30;4.35;;;1.63;;
21347;SDS011;66030;53.582;9.746;2024-01-30T03:10:58;3.13;;;1.52;;
21347;SDS011;66030;53.582;9.746;2024-01-30T03:13:27;2.42;;;1.50;;
21347;SDS011;66030;53.582;9.746;2024-01-30T03:15:55;2.88;;;1.50;;
21347;SDS011;66030;53.582;9.746;2024-01-30T03:18:23;3.78;;;1.75;;
21347;SDS011;66030;53.582;9.746;2024-01-30T03:20:51;4.40;;;1.75;;
21347;SDS011;66030;53.582;9.746;2024-01-30T03:23:19;4.50;;;1.75;;
21347;SDS011;66030;53.582;9.746;2024-01-30T03:25:47;4.28;;;1.65;;
21347;SDS011;66030;53.582;9.746;2024-01-30T03:28:14;4.10;;;1.60;;
21347;SDS011;66030;53.582;9.746;2024-01-30T03:30:44;3.45;;;1.60;;
21347;SDS011;66030;53.582;9.746;2024-01-30T03:33:12;3.13;;;1.52;;
21347;SDS011;66030;53.582;9.746;2024-01-30T03:35:40;2.72;;;1.60;;
21347;SDS011;66030;53.582;9.746;2024-01-30T03:38:07;3.40;;;1.55;;
21347;SDS011;66030;53.582;9.746;2024-01-30T03:40:35;3.58;;;1.95;;
21347;SDS011;66030;53.582;9.746;2024-01-30T03:43:03;3.47;;;1.73;;
21347;SDS011;66030;53.582;9.746;2024-01-30T03:45:31;2.50;;;1.38;;
21347;SDS011;66030;53.582;9.746;2024-01-30T03:48:00;3.22;;;1.33;;
21347;SDS011;66030;53.582;9.746;2024-01-30T03:50:28;3.13;;;1.38;;
21347;SDS011;66030;53.582;9.746;2024-01-30T03:52:56;4.80;;;1.58;;
21347;SDS011;66030;53.582;9.746;2024-01-30T03:55:24;2.30;;;1.38;;
21347;SDS011;66030;53.582;9.746;2024-01-30T03:57:52;3.13;;;1.52;;
21347;SDS011;66030;53.582;9.746;2024-01-30T04:00:20;2.88;;;1.60;;
21347;SDS011;66030;53.582;9.746;2024-01-30T04:02:48;3.42;;;1.55;;
21347;SDS011;66030;53.582;9.746;2024-01-30T04:05:18;3.20;;;1.60;;
21347;SDS011;66030;53.582;9.746;2024-01-30T04:07:45;2.30;;;1.40;;
21347;SDS011;66030;53.582;9.746;2024-01-30T04:10:13;3.55;;;1.50;;
21347;SDS011;66030;53.582;9.746;2024-01-30T04:12:41;2.78;;;1.30;;
21347;SDS011;66030;53.582;9.746;2024-01-30T04:15:09;3.35;;;1.50;;
21347;SDS011;66030;53.582;9.746;2024-01-30T04:17:37;4.20;;;1.67;;
21347;SDS011;66030;53.582;9.746;2024-01-30T04:20:06;2.03;;;1.40;;
21347;SDS011;66030;53.582;9.746;2024-01-30T04:22:35;2.33;;;1.52;;
21347;SDS011;66030;53.582;9.746;2024-01-30T04:25:03;3.08;;;1.60;;
21347;SDS011;66030;53.582;9.746;2024-01-30T04:27:31;3.13;;;1.33;;
21347;SDS011;66030;53.582;9.746;2024-01-30T04:29:59;3.97;;;1.63;;
21347;SDS011;66030;53.582;9.746;2024-01-30T04:32:27;3.15;;;1.65;;
21347;SDS011;66030;53.582;9.746;2024-01-30T04:34:55;3.17;;;1.40;;
21347;SDS011;66030;53.582;9.746;2024-01-30T04:37:23;2.42;;;1.48;;
21347;SDS011;66030;53.582;9.746;2024-01-30T04:39:53;2.97;;;1.60;;
21347;SDS011;66030;53.582;9.746;2024-01-30T04:42:21;3.17;;;1.50;;
21347;SDS011;66030;53.582;9.746;2024-01-30T04:44:49;3.67;;;1.55;;
21347;SDS011;66030;53.582;9.746;2024-01-30T04:47:17;4.47;;;1.60;;
21347;SDS011;66030;53.582;9.746;2024-01-30T04:49:45;4.70;;;1.50;;
21347;SDS011;66030;53.582;9.746;2024-01-30T04:52:13;2.95;;;1.50;;
21347;SDS011;66030;53.582;9.746;2024-01-30T04:54:41;2.00;;;1.30;;
21347;SDS011;66030;53.582;9.746;2024-01-30T04:57:12;2.60;;;1.27;;
21347;SDS011;66030;53.582;9.746;2024-01-30T04:59:40;3.25;;;1.60;;
21347;SDS011;66030;53.582;9.746;2024-01-30T05:02:07;3.72;;;1.40;;
21347;SDS011;66030;53.582;9.746;2024-01-30T05:04:36;2.72;;;1.33;;
21347;SDS011;66030;53.582;9.746;2024-01-30T05:07:04;2.80;;;1.50;;
21347;SDS011;66030;53.582;9.746;2024-01-30T05:09:32;5.30;;;1.75;;
21347;SDS011;66030;53.582;9.746;2024-01-30T05:12:00;4.15;;;1.60;;
21347;SDS011;66030;53.582;9.746;2024-01-30T05:14:30;2.60;;;1.30;;
21347;SDS011;66030;53.582;9.746;2024-01-30T05:16:58;2.55;;;1.75;;
21347;SDS011;66030;53.582;9.746;2024-01-30T05:19:26;3.33;;;1.48;;
21347;SDS011;66030;53.582;9.746;2024-01-30T05:21:54;2.05;;;1.35;;
21347;SDS011;66030;53.582;9.746;2024-01-30T05:24:21;2.90;;;1.40;;
21347;SDS011;66030;53.582;9.746;2024-01-30T05:26:53;3.70;;;1.42;;
21347;SDS011;66030;53.582;9.746;2024-01-30T05:29:21;2.80;;;1.27;;
21347;SDS011;66030;53.582;9.746;2024-01-30T05:31:50;3.20;;;1.27;;
21347;SDS011;66030;53.582;9.746;2024-01-30T05:34:18;5.72;;;1.30;;
21347;SDS011;66030;53.582;9.746;2024-01-30T05:36:46;2.00;;;1.40;;
21347;SDS011;66030;53.582;9.746;2024-01-30T05:39:14;2.38;;;1.30;;
21347;SDS011;66030;53.582;9.746;2024-01-30T05:41:42;3.40;;;1.27;;
21347;SDS011;66030;53.582;9.746;2024-01-30T05:44:10;2.22;;;1.40;;
21347;SDS011;66030;53.582;9.746;2024-01-30T05:46:37;1.50;;;1.25;;
21347;SDS011;66030;53.582;9.746;2024-01-30T05:49:07;2.10;;;1.30;;
21347;SDS011;66030;53.582;9.746;2024-01-30T05:51:35;3.35;;;1.48;;
21347;SDS011;66030;53.582;9.746;2024-01-30T05:54:03;2.40;;;1.30;;
21347;SDS011;66030;53.582;9.746;2024-01-30T05:56:31;2.28;;;1.20;;
21347;SDS011;66030;53.582;9.746;2024-01-30T05:58:58;3.15;;;1.52;;
21347;SDS011;66030;53.582;9.746;2024-01-30T06:01:26;3.17;;;1.33;;
21347;SDS011;66030;53.582;9.746;2024-01-30T06:03:56;4.45;;;1.48;;
21347;SDS011;66030;53.582;9.746;2024-01-30T06:06:25;4.40;;;1.35;;
21347;SDS011;66030;53.582;9.746;2024-01-30T06:08:53;7.00;;;1.70;;
21347;SDS011;66030;53.582;9.746;2024-01-30T06:11:22;4.80;;;1.75;;
21347;SDS011;66030;53.582;9.746;2024-01-30T06:13:50;5.97;;;1.73;;
21347;SDS011;66030;53.582;9.746;2024-01-30T06:16:18;4.20;;;1.80;;
21347;SDS011;66030;53.582;9.746;2024-01-30T06:18:57;6.22;;;1.73;;
21347;SDS011;66030;53.582;9.746;2024-01-30T06:21:26;5.07;;;2.55;;
21347;SDS011;66030;53.582;9.746;2024-01-30T06:23:54;4.93;;;1.58;;
21347;SDS011;66030;53.582;9.746;2024-01-30T06:26:22;4.82;;;1.80;;
21347;SDS011;66030;53.582;9.746;2024-01-30T06:28:50;3.90;;;1.80;;
21347;SDS011;66030;53.582;9.746;2024-01-30T06:31:18;3.30;;;1.48;;
21347;SDS011;66030;53.582;9.746;2024-01-30T06:33:46;8.73;;;1.85;;
21347;SDS011;66030;53.582;9.746;2024-01-30T06:36:14;4.20;;;1.55;;
21347;SDS011;66030;53.582;9.746;2024-01-30T06:38:43;11.00;;;2.97;;
21347;SDS011;66030;53.582;9.746;2024-01-30T06:41:11;4.03;;;2.00;;
21347;SDS011;66030;53.582;9.746;2024-01-30T06:43:39;7.07;;;2.20;;
21347;SDS011;66030;53.582;9.746;2024-01-30T06:46:07;6.22;;;2.47;;
21347;SDS011;66030;53.582;9.746;2024-01-30T06:48:35;6.30;;;2.13;;
21347;SDS011;66030;53.582;9.746;2024-01-30T06:51:06;7.72;;;2.08;;
21347;SDS011;66030;53.582;9.746;2024-01-30T06:53:34;4.50;;;1.92;;
21347;SDS011;66030;53.582;9.746;2024-01-30T06:56:04;4.88;;;2.00;;
21347;SDS011;66030;53.582;9.746;2024-01-30T06:58:32;7.20;;;2.00;;
21347;SDS011;66030;53.582;9.746;2024-01-30T07:01:00;5.18;;;1.90;;
21347;SDS011;66030;53.582;9.746;2024-01-30T07:03:28;3.63;;;2.03;;
21347;SDS011;66030;53.582;9.746;2024-01-30T07:05:56;4.03;;;2.50;;
21347;SDS011;66030;53.582;9.746;2024-01-30T07:08:24;4.30;;;2.78;;
21347;SDS011;66030;53.582;9.746;2024-01-30T07:10:52;3.83;;;2.40;;
21347;SDS011;66030;53.582;9.746;2024-01-30T07:13:27;7.05;;;3.30;;
21347;SDS011;66030;53.582;9.746;2024-01-30T07:15:55;7.47;;;2.78;;
21347;SDS011;66030;53.582;9.746;2024-01-30T07:18:23;5.30;;;2.70;;
21347;SDS011;66030;53.582;9.746;2024-01-30T07:20:51;4.70;;;2.30;;
21347;SDS011;66030;53.582;9.746;2024-01-30T07:23:19;5.47;;;2.40;;
21347;SDS011;66030;53.582;9.746;2024-01-30T07:25:47;6.93;;;2.63;;
21347;SDS011;66030;53.582;9.746;2024-01-30T07:28:16;3.83;;;2.70;;
21347;SDS011;66030;53.582;9.746;2024-01-30T07:30:46;4.82;;;2.13;;
21347;SDS011;66030;53.582;9.746;2024-01-30T07:33:15;4.22;;;2.15;;
21347;SDS011;66030;53.582;9.746;2024-01-30T07:35:43;4.43;;;2.40;;
21347;SDS011;66030;53.582;9.746;2024-01-30T07:38:12;4.88;;;2.20;;
21347;SDS011;66030;53.582;9.746;2024-01-30T07:40:40;6.00;;;2.05;;
21347;SDS011;66030;53.582;9.746;2024-01-30T07:43:08;3.92;;;2.45;;
21347;SDS011;66030;53.582;9.746;2024-01-30T07:45:36;7.38;;;2.47;;
21347;SDS011;66030;53.582;9.746;2024-01-30T07:48:07;4.35;;;2.35;;
21347;SDS011;66030;53.582;9.746;2024-01-30T07:50:35;5.53;;;2.35;;
21347;SDS011;66030;53.582;9.746;2024-01-30T07:53:03;5.07;;;3.10;;
21347;SDS011;66030;53.582;9.746;2024-01-30T07:55:31;3.03;;;2.00;;
21347;SDS011;66030;53.582;9.746;2024-01-30T07:57:59;4.15;;;2.00;;
21347;SDS011;66030;53.582;9.746;2024-01-30T08:00:27;4.28;;;2.17;;
21347;SDS011;66030;53.582;9.746;2024-01-30T08:02:56;2.83;;;1.92;;
21347;SDS011;66030;53.582;9.746;2024-01-30T08:05:26;2.80;;;2.05;;
21347;SDS011;66030;53.582;9.746;2024-01-30T08:07:54;4.22;;;2.33;;
21347;SDS011;66030;53.582;9.746;2024-01-30T08:10:23;4.20;;;2.13;;
21347;SDS011;66030;53.582;9.746;2024-01-30T08:12:51;3.03;;;1.80;;
21347;SDS011;66030;53.582;9.746;2024-01-30T08:15:19;2.80;;;1.90;;
21347;SDS011;66030;53.582;9.746;2024-01-30T08:17:46;6.10;;;2.03;;
21347;SDS011;66030;53.582;9.746;2024-01-30T08:20:14;4.90;;;3.53;;
21347;SDS011;66030;53.582;9.746;2024-01-30T08:22:44;4.95;;;3.25;;
21347;SDS011;66030;53.582;9.746;2024-01-30T08:25:12;5.97;;;2.55;;
21347;SDS011;66030;53.582;9.746;2024-01-30T08:27:40;6.25;;;2.70;;
21347;SDS011;66030;53.582;9.746;2024-01-30T08:30:08;4.88;;;2.40;;
21347;SDS011;66030;53.582;9.746;2024-01-30T08:32:37;4.65;;;2.58;;
21347;SDS011;66030;53.582;9.746;2024-01-30T08:35:05;4.63;;;2.45;;
21347;SDS011;66030;53.582;9.746;2024-01-30T08:37:33;4.82;;;2.30;;
21347;SDS011;66030;53.582;9.746;2024-01-30T08:40:03;5.93;;;2.35;;
21347;SDS011;66030;53.582;9.746;2024-01-30T08:42:32;3.10;;;2.00;;
21347;SDS011;66030;53.582;9.746;2024-01-30T08:45:00;6.72;;;2.60;;
21347;SDS011;66030;53.582;9.746;2024-01-30T08:47:27;7.50;;;2.88;;
21347;SDS011;66030;53.582;9.746;2024-01-30T08:49:55;6.70;;;2.88;;
21347;SDS011;66030;53.582;9.746;2024-01-30T08:52:24;6.53;;;2.67;;
21347;SDS011;66030;53.582;9.746;2024-01-30T08:54:55;6.30;;;2.67;;
21347;SDS011;66030;53.582;9.746;2024-01-30T08:57:24;9.80;;;3.03;;
21347;SDS011;66030;53.582;9.746;2024-01-30T08:59:54;5.32;;;2.30;;
21347;SDS011;66030;53.582;9.746;2024-01-30T09:02:22;8.15;;;2.55;;
21347;SDS011;66030;53.582;9.746;2024-01-30T09:04:50;4.60;;;2.05;;
21347;SDS011;66030;53.582;9.746;2024-01-30T09:07:18;5.70;;;2.40;;
21347;SDS011;66030;53.582;9.746;2024-01-30T09:09:46;4.63;;;1.98;;
21347;SDS011;66030;53.582;9.746;2024-01-30T09:12:15;7.85;;;2.13;;
21347;SDS011;66030;53.582;9.746;2024-01-30T09:14:45;6.03;;;2.38;;
21347;SDS011;66030;53.582;9.746;2024-01-30T09:17:13;5.80;;;2.90;;
21347;SDS011;66030;53.582;9.746;2024-01-30T09:19:41;5.55;;;3.25;;
21347;SDS011;66030;53.582;9.746;2024-01-30T09:22:09;6.93;;;2.03;;
21347;SDS011;66030;53.582;9.746;2024-01-30T09:24:37;5.75;;;2.60;;
21347;SDS011;66030;53.582;9.746;2024-01-30T09:27:04;3.13;;;1.98;;
21347;SDS011;66030;53.582;9.746;2024-01-30T09:29:32;5.72;;;2.45;;
21347;SDS011;66030;53.582;9.746;2024-01-30T09:32:05;4.80;;;2.03;;
21347;SDS011;66030;53.582;9.746;2024-01-30T09:34:35;7.03;;;2.20;;
21347;SDS011;66030;53.582;9.746;2024-01-30T09:37:03;4.75;;;1.73;;
21347;SDS011;66030;53.582;9.746;2024-01-30T09:39:31;2.95;;;2.00;;
21347;SDS011;66030;53.582;9.746;2024-01-30T09:42:01;5.82;;;2.55;;
21347;SDS011;66030;53.582;9.746;2024-01-30T09:44:32;4.93;;;2.15;;
21347;SDS011;66030;53.582;9.746;2024-01-30T09:47:04;5.75;;;2.10;;
21347;SDS011;66030;53.582;9.746;2024-01-30T09:49:32;5.03;;;2.30;;
21347;SDS011;66030;53.582;9.746;2024-01-30T09:52:02;4.13;;;2.30;;
21347;SDS011;66030;53.582;9.746;2024-01-30T09:54:31;4.07;;;2.05;;
21347;SDS011;66030;53.582;9.746;2024-01-30T09:57:02;6.38;;;2.42;;
21347;SDS011;66030;53.582;9.746;2024-01-30T09:59:31;6.03;;;2.10;;
21347;SDS011;66030;53.582;9.746;2024-01-30T10:02:00;3.67;;;1.98;;
21347;SDS011;66030;53.582;9.746;2024-01-30T10:04:32;4.57;;;2.13;;
21347;SDS011;66030;53.582;9.746;2024-01-30T10:07:01;5.70;;;2.13;;
21347;SDS011;66030;53.582;9.746;2024-01-30T10:09:31;4.57;;;2.00;;
21347;SDS011;66030;53.582;9.746;2024-01-30T10:11:59;8.02;;;2.20;;
21347;SDS011;66030;53.582;9.746;2024-01-30T10:16:57;4.35;;;2.10;;
21347;SDS011;66030;53.582;9.746;2024-01-30T10:19:25;7.35;;;1.90;;
21347;SDS011;66030;53.582;9.746;2024-01-30T10:21:55;4.25;;;2.15;;
21347;SDS011;66030;53.582;9.746;2024-01-30T10:24:26;2.95;;;1.60;;
21347;SDS011;66030;53.582;9.746;2024-01-30T10:26:55;4.32;;;2.33;;
21347;SDS011;66030;53.582;9.746;2024-01-30T10:29:25;3.85;;;1.88;;
21347;SDS011;66030;53.582;9.746;2024-01-30T10:31:59;3.47;;;1.60;;
21347;SDS011;66030;53.582;9.746;2024-01-30T10:34:27;5.03;;;2.05;;
21347;SDS011;66030;53.582;9.746;2024-01-30T10:36:59;4.22;;;2.25;;
21347;SDS011;66030;53.582;9.746;2024-01-30T10:39:34;3.05;;;2.10;;
21347;SDS011;66030;53.582;9.746;2024-01-30T10:42:06;3.08;;;1.65;;
21347;SDS011;66030;53.582;9.746;2024-01-30T10:44:42;3.35;;;1.45;;
21347;SDS011;66030;53.582;9.746;2024-01-30T10:47:15;3.50;;;1.95;;
21347;SDS011;66030;53.582;9.746;2024-01-30T10:49:48;3.03;;;1.52;;
21347;SDS011;66030;53.582;9.746;2024-01-30T10:52:19;2.58;;;1.75;;
21347;SDS011;66030;53.582;9.746;2024-01-30T10:54:48;4.78;;;1.65;;
21347;SDS011;66030;53.582;9.746;2024-01-30T10:57:17;5.60;;;1.95;;
21347;SDS011;66030;53.582;9.746;2024-01-30T10:59:45;3.22;;;1.65;;
21347;SDS011;66030;53.582;9.746;2024-01-30T11:02:14;4.18;;;1.48;;
21347;SDS011;66030;53.582;9.746;2024-01-30T11:04:42;3.15;;;1.67;;
21347;SDS011;66030;53.582;9.746;2024-01-30T11:07:14;3.22;;;1.88;;
21347;SDS011;66030;53.582;9.746;2024-01-30T11:09:50;4.65;;;1.80;;
21347;SDS011;66030;53.582;9.746;2024-01-30T11:12:21;3.90;;;1.77;;
21347;SDS011;66030;53.582;9.746;2024-01-30T11:14:50;3.60;;;1.95;;
21347;SDS011;66030;53.582;9.746;2024-01-30T11:17:39;2.45;;;1.50;;
21347;SDS011;66030;53.582;9.746;2024-01-30T11:20:09;3.33;;;1.40;;
21347;SDS011;66030;53.582;9.746;2024-01-30T11:22:40;3.88;;;1.60;;
21347;SDS011;66030;53.582;9.746;2024-01-30T11:25:14;3.55;;;1.80;;
21347;SDS011;66030;53.582;9.746;2024-01-30T11:27:43;2.78;;;1.70;;
21347;SDS011;66030;53.582;9.746;2024-01-30T11:30:20;4.25;;;1.80;;
21347;SDS011;66030;53.582;9.746;2024-01-30T11:32:57;3.45;;;1.77;;
21347;SDS011;66030;53.582;9.746;2024-01-30T11:35:28;2.35;;;1.30;;
21347;SDS011;66030;53.582;9.746;2024-01-30T11:37:58;2.97;;;1.55;;
21347;SDS011;66030;53.582;9.746;2024-01-30T11:40:28;2.95;;;1.60;;
21347;SDS011;66030;53.582;9.746;2024-01-30T11:42:57;3.13;;;1.55;;
21347;SDS011;66030;53.582;9.746;2024-01-30T11:47:55;3.13;;;1.80;;
21347;SDS011;66030;53.582;9.746;2024-01-30T11:50:24;2.95;;;1.67;;
21347;SDS011;66030;53.582;9.746;2024-01-30T11:52:53;2.10;;;1.40;;
21347;SDS011;66030;53.582;9.746;2024-01-30T11:55:23;4.15;;;1.35;;
21347;SDS011;66030;53.582;9.746;2024-01-30T11:57:56;2.75;;;2.22;;
21347;SDS011;66030;53.582;9.746;2024-01-30T12:00:24;2.88;;;1.58;;
21347;SDS011;66030;53.582;9.746;2024-01-30T12:02:53;4.10;;;1.65;;
21347;SDS011;66030;53.582;9.746;2024-01-30T12:05:23;3.53;;;1.88;;
21347;SDS011;66030;53.582;9.746;2024-01-30T12:07:52;2.88;;;1.67;;
21347;SDS011;66030;53.582;9.746;2024-01-30T12:10:20;2.58;;;1.38;;
21347;SDS011;66030;53.582;9.746;2024-01-30T12:12:49;2.85;;;1.50;;
21347;SDS011;66030;53.582;9.746;2024-01-30T12:15:20;2.35;;;1.35;;
21347;SDS011;66030;53.582;9.746;2024-01-30T12:17:49;3.47;;;1.70;;
21347;SDS011;66030;53.582;9.746;2024-01-30T12:20:17;2.80;;;1.52;;
21347;SDS011;66030;53.582;9.746;2024-01-30T12:22:48;2.85;;;1.73;;
21347;SDS011;66030;53.582;9.746;2024-01-30T12:25:18;2.25;;;1.40;;
21347;SDS011;66030;53.582;9.746;2024-01-30T12:27:49;3.15;;;1.50;;
21347;SDS011;66030;53.582;9.746;2024-01-30T12:30:20;2.33;;;1.55;;
21347;SDS011;66030;53.582;9.746;2024-01-30T12:32:49;2.72;;;1.50;;
21347;SDS011;66030;53.582;9.746;2024-01-30T12:35:19;2.67;;;1.33;;
21347;SDS011;66030;53.582;9.746;2024-01-30T12:37:48;1.45;;;1.20;;
21347;SDS011;66030;53.582;9.746;2024-01-30T12:40:17;3.65;;;1.60;;
21347;SDS011;66030;53.582;9.746;2024-01-30T12:42:46;3.08;;;1.60;;
21347;SDS011;66030;53.582;9.746;2024-01-30T12:45:16;3.13;;;1.45;;
21347;SDS011;66030;53.582;9.746;2024-01-30T12:47:48;2.60;;;1.58;;
21347;SDS011;66030;53.582;9.746;2024-01-30T12:50:16;2.55;;;1.67;;
21347;SDS011;66030;53.582;9.746;2024-01-30T12:52:44;2.22;;;1.42;;
21347;SDS011;66030;53.582;9.746;2024-01-30T12:55:15;3.05;;;1.45;;
21347;SDS011;66030;53.582;9.746;2024-01-30T12:57:44;2.63;;;1.65;;
21347;SDS011;66030;53.582;9.746;2024-01-30T13:00:12;3.42;;;1.52;;
21347;SDS011;66030;53.582;9.746;2024-01-30T13:02:40;5.40;;;1.70;;
21347;SDS011;66030;53.582;9.746;2024-01-30T13:05:10;3.90;;;1.42;;
21347;SDS011;66030;53.582;9.746;2024-01-30T13:07:38;1.90;;;1.20;;
21347;SDS011;66030;53.582;9.746;2024-01-30T13:10:06;2.65;;;1.30;;
21347;SDS011;66030;53.582;9.746;2024-01-30T13:12:34;2.97;;;1.40;;
21347;SDS011;66030;53.582;9.746;2024-01-30T13:15:03;3.50;;;1.25;;
21347;SDS011;66030;53.582;9.746;2024-01-30T13:17:32;1.65;;;1.10;;
21347;SDS011;66030;53.582;9.746;2024-01-30T13:20:00;3.05;;;1.50;;
21347;SDS011;66030;53.582;9.746;2024-01-30T13:22:38;4.95;;;1.83;;
21347;SDS011;66030;53.582;9.746;2024-01-30T13:25:06;4.10;;;1.40;;
21347;SDS011;66030;53.582;9.746;2024-01-30T13:27:35;2.58;;;1.33;;
21347;SDS011;66030;53.582;9.746;2024-01-30T13:30:03;3.65;;;1.45;;
21347;SDS011;66030;53.582;9.746;2024-01-30T13:32:32;2.22;;;1.30;;
21347;SDS011;66030;53.582;9.746;2024-01-30T13:35:00;4.00;;;1.58;;
21347;SDS011;66030;53.582;9.746;2024-01-30T13:37:28;2.33;;;1.35;;
21347;SDS011;66030;53.582;9.746;2024-01-30T13:39:57;2.30;;;1.20;;
21347;SDS011;66030;53.582;9.746;2024-01-30T13:42:28;1.70;;;1.20;;
21347;SDS011;66030;53.582;9.746;2024-01-30T13:44:56;6.13;;;1.52;;
21347;SDS011;66030;53.582;9.746;2024-01-30T13:47:24;1.85;;;1.20;;
21347;SDS011;66030;53.582;9.746;2024-01-30T13:49:52;3.30;;;1.75;;
21347;SDS011;66030;53.582;9.746;2024-01-30T13:52:20;3.22;;;1.50;;
21347;SDS011;66030;53.582;9.746;2024-01-30T13:54:53;2.38;;;1.40;;
21347;SDS011;66030;53.582;9.746;2024-01-30T13:57:23;1.70;;;1.40;;
21347;SDS011;66030;53.582;9.746;2024-01-30T13:59:50;2.72;;;1.38;;
21347;SDS011;66030;53.582;9.746;2024-01-30T14:02:18;3.38;;;1.50;;
21347;SDS011;66030;53.582;9.746;2024-01-30T14:04:46;4.80;;;2.10;;
21347;SDS011;66030;53.582;9.746;2024-01-30T14:07:15;3.30;;;1.25;;
21347;SDS011;66030;53.582;9.746;2024-01-30T14:09:44;2.80;;;1.73;;
21347;SDS011;66030;53.582;9.746;2024-01-30T14:12:12;7.65;;;1.70;;
21347;SDS011;66030;53.582;9.746;2024-01-30T14:14:41;4.20;;;1.58;;
21347;SDS011;66030;53.582;9.746;2024-01-30T14:17:09;2.75;;;1.50;;
21347;SDS011;66030;53.582;9.746;2024-01-30T14:19:37;4.30;;;1.90;;
21347;SDS011;66030;53.582;9.746;2024-01-30T14:22:05;3.90;;;1.42;;
21347;SDS011;66030;53.582;9.746;2024-01-30T14:24:34;3.70;;;1.83;;
21347;SDS011;66030;53.582;9.746;2024-01-30T14:27:03;3.25;;;1.40;;
21347;SDS011;66030;53.582;9.746;2024-01-30T14:29:32;2.72;;;1.50;;
21347;SDS011;66030;53.582;9.746;2024-01-30T14:32:02;3.17;;;1.42;;
21347;SDS011;66030;53.582;9.746;2024-01-30T14:34:30;2.20;;;1.40;;
21347;SDS011;66030;53.582;9.746;2024-01-30T14:36:58;3.83;;;1.55;;
21347;SDS011;66030;53.582;9.746;2024-01-30T14:39:26;3.00;;;1.90;;
21347;SDS011;66030;53.582;9.746;2024-01-30T14:41:54;5.30;;;2.22;;
21347;SDS011;66030;53.582;9.746;2024-01-30T14:44:22;3.10;;;1.58;;
21347;SDS011;66030;53.582;9.746;2024-01-30T14:46:50;2.72;;;1.48;;
21347;SDS011;66030;53.582;9.746;2024-01-30T14:49:20;3.72;;;1.70;;
21347;SDS011;66030;53.582;9.746;2024-01-30T14:51:48;2.97;;;1.58;;
21347;SDS011;66030;53.582;9.746;2024-01-30T14:54:16;5.97;;;1.75;;
21347;SDS011;66030;53.582;9.746;2024-01-30T14:56:44;7.40;;;1.63;;
21347;SDS011;66030;53.582;9.746;2024-01-30T14:59:13;2.38;;;1.35;;
21347;SDS011;66030;53.582;9.746;2024-01-30T15:01:41;6.35;;;1.67;;